Terminal Aerodrome Forecast
Issued by NWS

Home | Current Version | Previous Version | Text Only | Print | Product List | Glossary Off
Versions: 1 2 3 4 5 6 7 8 9 10 11 12 13 14 15 16 17 18 19 20

000
FTUS43 KTOP 011700
TAFMHK
TAF
KMHK 011730Z 0118/0218 31005KT P6SM SCT018
      TEMPO 0118/0122 BKN018
     FM020200 05002KT P6SM BKN100
     FM020900 11006KT P6SM BKN060=

USA.gov is the U.S. government's official web portal to all federal, state and local government web resources and services.